createdAt,value
2023-01-30T00:02:43.541Z,74.15
2023-01-30T00:08:05.263Z,74.83
2023-01-30T00:13:27.450Z,74.73
2023-01-30T00:18:49.226Z,75.37
2023-01-30T00:24:11.087Z,75.16
2023-01-30T00:29:32.874Z,74.71
2023-01-30T00:34:54.586Z,74.94
2023-01-30T00:40:16.992Z,74.69
2023-01-30T00:45:59.943Z,75.16
2023-01-30T00:51:21.792Z,75.31
2023-01-30T00:56:43.492Z,75.13
2023-01-30T01:02:05.300Z,74.89
2023-01-30T01:07:27.256Z,74.00
2023-01-30T01:12:50.395Z,74.31
2023-01-30T01:18:12.110Z,73.40
2023-01-30T01:23:33.921Z,73.15
2023-01-30T01:28:56.754Z,73.44
2023-01-30T01:34:18.501Z,74.23
2023-01-30T01:39:58.918Z,73.45
2023-01-30T01:45:22.993Z,73.58
2023-01-30T01:50:58.300Z,73.79
2023-01-30T01:56:20.851Z,73.22
2023-01-30T02:01:42.608Z,73.48
2023-01-30T02:07:04.704Z,73.39
2023-01-30T02:12:26.671Z,74.24
2023-01-30T02:17:48.477Z,74.44
2023-01-30T02:23:43.328Z,74.35
2023-01-30T02:29:26.951Z,74.88
2023-01-30T02:35:14.677Z,76.13
2023-01-30T02:40:48.739Z,75.47
2023-01-30T02:46:34.269Z,75.30
2023-01-30T02:51:59.031Z,75.17
2023-01-30T02:57:23.367Z,74.16
2023-01-30T03:03:09.266Z,75.15
2023-01-30T03:08:58.148Z,74.41
2023-01-30T03:14:26.561Z,74.43
2023-01-30T03:19:48.435Z,74.32
2023-01-30T03:25:14.096Z,74.12
2023-01-30T03:30:35.844Z,74.56
2023-01-30T03:35:57.717Z,74.36
2023-01-30T03:41:19.425Z,72.38
2023-01-30T03:46:41.148Z,70.98
2023-01-30T03:52:02.857Z,70.31
2023-01-30T03:57:24.548Z,69.87
2023-01-30T04:02:46.330Z,69.71
2023-01-30T04:08:08.072Z,69.49
2023-01-30T04:13:29.747Z,68.45
2023-01-30T04:18:52.173Z,68.25
2023-01-30T04:24:13.897Z,68.04
2023-01-30T04:29:36.169Z,67.77
2023-01-30T04:34:57.927Z,67.90
2023-01-30T04:40:19.834Z,68.21
2023-01-30T04:45:45.372Z,67.24
2023-01-30T04:51:07.425Z,66.99
2023-01-30T04:56:29.170Z,66.65
2023-01-30T05:01:51.020Z,66.67
2023-01-30T05:07:12.807Z,66.32
2023-01-30T05:12:35.015Z,65.49
2023-01-30T05:17:56.803Z,65.23
2023-01-30T05:23:18.520Z,65.83
2023-01-30T05:28:40.684Z,64.51
2023-01-30T05:34:02.419Z,65.28
2023-01-30T05:39:24.108Z,65.22
2023-01-30T05:44:46.063Z,65.21
2023-01-30T05:50:08.418Z,65.22
2023-01-30T05:55:30.523Z,64.90
2023-01-30T06:00:52.525Z,65.07
2023-01-30T06:06:14.257Z,65.46
2023-01-30T06:11:36.045Z,65.15
2023-01-30T06:16:57.885Z,65.41
2023-01-30T06:22:19.663Z,65.23
2023-01-30T06:27:41.436Z,65.34
2023-01-30T06:33:04.326Z,64.83
2023-01-30T06:38:26.357Z,64.56
2023-01-30T06:43:48.303Z,64.31
2023-01-30T06:49:10.082Z,64.83
2023-01-30T06:54:31.943Z,65.42
2023-01-30T06:59:53.689Z,65.43
2023-01-30T07:05:15.443Z,65.05
2023-01-30T07:10:37.372Z,65.61
2023-01-30T07:15:59.086Z,65.36
2023-01-30T07:21:20.791Z,65.72
2023-01-30T07:26:42.756Z,65.48
2023-01-30T07:32:06.288Z,65.04
2023-01-30T07:37:28.001Z,65.06
2023-01-30T07:42:57.130Z,65.66
2023-01-30T07:48:19.664Z,66.09
2023-01-30T07:53:41.382Z,65.90
2023-01-30T07:59:05.549Z,65.82
2023-01-30T08:04:27.338Z,66.22
2023-01-30T08:09:49.126Z,65.28
2023-01-30T08:15:11.204Z,65.67
2023-01-30T08:20:33.449Z,65.92
2023-01-30T08:26:06.151Z,66.55
2023-01-30T08:31:27.924Z,67.76
2023-01-30T08:36:49.680Z,68.17
2023-01-30T08:42:11.474Z,68.25
2023-01-30T08:47:35.420Z,68.33
2023-01-30T08:52:57.147Z,68.14
2023-01-30T08:58:21.933Z,67.85
2023-01-30T09:03:43.643Z,67.55
2023-01-30T09:09:05.361Z,66.66
2023-01-30T09:14:27.258Z,67.15
2023-01-30T09:19:49.183Z,67.23
2023-01-30T09:25:10.874Z,67.54
2023-01-30T09:30:32.678Z,66.75
2023-01-30T09:35:54.475Z,67.22
2023-01-30T09:41:31.342Z,67.90
2023-01-30T09:47:14.502Z,67.54
2023-01-30T09:53:10.243Z,67.99
2023-01-30T09:58:44.468Z,67.90
2023-01-30T10:04:14.566Z,68.09
2023-01-30T10:09:54.795Z,67.41
2023-01-30T10:15:22.483Z,67.21
2023-01-30T10:21:07.035Z,66.91
2023-01-30T10:26:30.521Z,66.95
2023-01-30T10:32:15.754Z,67.53
2023-01-30T10:38:02.832Z,67.67
2023-01-30T10:43:41.111Z,68.40
2023-01-30T10:49:11.658Z,68.58
2023-01-30T10:54:33.296Z,69.74
2023-01-30T11:00:05.621Z,69.99
2023-01-30T11:05:39.481Z,70.55
2023-01-30T11:11:19.972Z,71.61
2023-01-30T11:16:47.627Z,71.68
2023-01-30T11:22:15.095Z,73.50
2023-01-30T11:27:37.072Z,74.33
2023-01-30T11:33:32.978Z,73.54
2023-01-30T11:39:19.805Z,73.94
2023-01-30T11:44:42.450Z,76.00
2023-01-30T11:50:14.595Z,78.31
2023-01-30T11:56:00.330Z,78.95
2023-01-30T12:01:36.511Z,80.01
2023-01-30T12:07:16.475Z,80.67
2023-01-30T12:12:49.067Z,81.49
2023-01-30T12:18:20.326Z,81.90
2023-01-30T12:23:52.579Z,83.06
2023-01-30T12:29:25.338Z,84.30
2023-01-30T12:34:48.326Z,83.63
2023-01-30T12:40:47.172Z,84.52
2023-01-30T12:46:21.025Z,84.40
2023-01-30T12:51:58.861Z,84.67
2023-01-30T12:57:41.364Z,84.28
2023-01-30T13:03:08.727Z,84.95
2023-01-30T13:08:56.349Z,85.05
2023-01-30T13:14:36.356Z,85.83
2023-01-30T13:20:08.451Z,85.73
2023-01-30T13:25:42.665Z,85.07
2023-01-30T13:31:08.817Z,85.74
2023-01-30T13:36:42.002Z,85.83
2023-01-30T13:42:08.538Z,86.34
2023-01-30T13:47:45.453Z,85.91
2023-01-30T13:53:30.378Z,85.67
2023-01-30T13:59:01.026Z,86.35
2023-01-30T14:04:41.140Z,85.93
2023-01-30T14:10:05.441Z,84.50
2023-01-30T14:15:29.072Z,82.88
2023-01-30T14:20:52.239Z,81.96
2023-01-30T14:26:14.012Z,81.71
2023-01-30T14:31:48.901Z,81.22
2023-01-30T14:37:37.795Z,80.66
2023-01-30T14:43:11.785Z,79.97
2023-01-30T14:48:53.855Z,79.55
2023-01-30T14:54:15.590Z,79.51
2023-01-30T15:00:13.415Z,78.64
2023-01-30T15:05:43.778Z,78.88
2023-01-30T15:11:25.726Z,77.00
2023-01-30T15:17:12.170Z,77.27
2023-01-30T15:23:07.771Z,76.33
2023-01-30T15:29:08.818Z,76.68
2023-01-30T15:34:32.266Z,76.29
2023-01-30T15:40:15.705Z,76.80
2023-01-30T15:46:13.463Z,76.33
2023-01-30T15:51:35.244Z,76.92
2023-01-30T15:56:59.295Z,76.60
2023-01-30T16:02:30.396Z,76.65
2023-01-30T16:07:54.240Z,76.46
2023-01-30T16:13:16.668Z,76.27
2023-01-30T16:18:45.765Z,75.82
2023-01-30T16:24:20.335Z,76.37
2023-01-30T16:29:53.052Z,76.32
2023-01-30T16:35:30.920Z,76.59
2023-01-30T16:40:52.643Z,76.61
2023-01-30T16:46:42.504Z,76.74
2023-01-30T16:52:26.191Z,77.36
2023-01-30T16:57:57.264Z,77.07
2023-01-30T17:03:24.284Z,76.85
2023-01-30T17:08:58.701Z,77.38
2023-01-30T17:14:21.839Z,77.46
2023-01-30T17:19:46.760Z,77.23
2023-01-30T17:25:20.056Z,77.61
2023-01-30T17:30:41.947Z,77.41
2023-01-30T17:36:06.777Z,77.36
2023-01-30T17:41:30.841Z,77.53
2023-01-30T17:46:52.610Z,77.02
2023-01-30T17:52:14.611Z,77.07
2023-01-30T17:57:36.349Z,76.93
2023-01-30T18:02:58.111Z,77.31
2023-01-30T18:08:19.885Z,77.11
2023-01-30T18:13:42.651Z,77.23
2023-01-30T18:19:06.682Z,77.59
2023-01-30T18:24:28.502Z,78.09
2023-01-30T18:29:50.289Z,79.17
2023-01-30T18:35:12.002Z,78.82
2023-01-30T18:40:33.796Z,78.88
2023-01-30T18:46:02.589Z,78.67
2023-01-30T18:51:26.822Z,78.74
2023-01-30T18:56:48.544Z,78.52
2023-01-30T19:02:12.964Z,77.91
2023-01-30T19:07:35.127Z,78.16
2023-01-30T19:13:15.620Z,77.64
2023-01-30T19:18:37.441Z,76.94
2023-01-30T19:24:02.361Z,77.12
2023-01-30T19:29:24.217Z,77.37
2023-01-30T19:34:45.997Z,77.19
2023-01-30T19:40:09.712Z,77.65
2023-01-30T19:45:35.199Z,77.69
2023-01-30T19:50:58.101Z,78.06
2023-01-30T19:56:22.661Z,78.37
2023-01-30T20:01:44.737Z,78.91
2023-01-30T20:07:06.727Z,78.69
2023-01-30T20:12:28.703Z,77.96
2023-01-30T20:17:52.991Z,78.79
2023-01-30T20:23:14.966Z,79.71
2023-01-30T20:28:38.213Z,79.02
2023-01-30T20:34:09.065Z,79.45
2023-01-30T20:39:30.861Z,79.21
2023-01-30T20:44:52.703Z,79.35
2023-01-30T20:50:15.866Z,79.39
2023-01-30T20:55:38.281Z,79.66
2023-01-30T21:01:18.576Z,79.93
2023-01-30T21:06:44.289Z,79.79
2023-01-30T21:12:07.263Z,79.28
2023-01-30T21:17:29.011Z,79.22
2023-01-30T21:22:50.809Z,78.95
2023-01-30T21:28:12.560Z,79.36
2023-01-30T21:33:34.452Z,79.40
2023-01-30T21:39:14.799Z,79.07
2023-01-30T21:44:37.861Z,78.61
2023-01-30T21:49:59.719Z,77.76
2023-01-30T21:55:21.864Z,77.24
2023-01-30T22:00:43.810Z,77.46
2023-01-30T22:06:10.058Z,76.66
2023-01-30T22:11:32.804Z,77.13
2023-01-30T22:16:54.730Z,76.81
2023-01-30T22:22:16.551Z,75.28
2023-01-30T22:27:38.509Z,75.51
2023-01-30T22:33:00.223Z,76.28
2023-01-30T22:38:23.103Z,76.47
2023-01-30T22:43:47.420Z,76.43
2023-01-30T22:49:10.165Z,76.10
2023-01-30T22:54:31.985Z,75.49
2023-01-30T22:59:53.771Z,75.65
2023-01-30T23:05:15.534Z,74.90
2023-01-30T23:10:40.328Z,74.77
2023-01-30T23:16:04.085Z,74.74
2023-01-30T23:21:31.767Z,74.52
2023-01-30T23:26:53.486Z,74.68
2023-01-30T23:32:18.913Z,73.52
2023-01-30T23:37:59.196Z,73.52
2023-01-30T23:43:21.053Z,73.75
2023-01-30T23:48:44.514Z,74.23
2023-01-30T23:54:07.144Z,73.64
2023-01-30T23:59:28.851Z,73.48
